Time;durP1;ratioP1;P1;durP2;ratioP2;P2;SDS_P1;SDS_P2;PMS_P1;PMS_P2;Temp;Humidity;BMP_temperature;BMP_pressure;BME280_temperature;BME280_humidity;BME280_pressure;Samples;Min_cycle;Max_cycle;Signal;HPM_P1;HPM_P2
2023/05/08 00:01:22;;;;;;;7.68;5.68;;;15.60;82.20;;;;;;4920702;29;20028;-83
2023/05/08 00:03:47;;;;;;;7.00;5.47;;;15.60;82.30;;;;;;4921158;29;20036;-83
2023/05/08 00:06:13;;;;;;;7.90;6.03;;;15.60;82.30;;;;;;4921116;29;20027;-82
2023/05/08 00:08:39;;;;;;;7.78;6.13;;;15.50;82.20;;;;;;4920266;29;20042;-82
2023/05/08 00:11:04;;;;;;;8.50;6.03;;;15.50;82.20;;;;;;4921032;29;20559;-83
2023/05/08 00:13:30;;;;;;;7.97;6.32;;;15.60;82.20;;;;;;4920767;29;20488;-83
2023/05/08 00:15:55;;;;;;;7.07;5.78;;;15.60;82.20;;;;;;4921047;29;20035;-82
2023/05/08 00:18:21;;;;;;;7.65;5.95;;;15.60;82.20;;;;;;4921160;29;20547;-83
2023/05/08 00:20:46;;;;;;;8.23;6.38;;;15.60;82.20;;;;;;4919384;29;20027;-83
2023/05/08 00:23:12;;;;;;;7.43;5.57;;;15.60;82.20;;;;;;4929179;29;20480;-85
2023/05/08 00:25:37;;;;;;;7.43;5.68;;;15.60;82.20;;;;;;4936570;29;20039;-84
2023/05/08 00:28:03;;;;;;;7.35;5.70;;;15.60;82.20;;;;;;4952380;29;20036;-83
2023/05/08 00:30:28;;;;;;;7.38;5.78;;;15.60;82.20;;;;;;4933449;29;20548;-83
2023/05/08 00:32:54;;;;;;;7.10;5.50;;;15.60;82.20;;;;;;4928773;29;20028;-83
2023/05/08 00:35:19;;;;;;;7.60;5.65;;;15.60;82.20;;;;;;4934266;29;20039;-84
2023/05/08 00:37:45;;;;;;;8.02;5.97;;;15.60;82.20;;;;;;4950484;29;20028;-84
2023/05/08 00:40:11;;;;;;;7.35;5.38;;;15.60;82.10;;;;;;4933346;29;20047;-82
2023/05/08 00:42:37;;;;;;;7.63;5.38;;;15.60;82.10;;;;;;4932894;29;20099;-81
2023/05/08 00:45:03;;;;;;;7.50;5.50;;;15.60;82.70;;;;;;4932048;29;20020;-84
2023/05/08 00:47:30;;;;;;;7.88;5.70;;;15.60;82.10;;;;;;4931933;29;20096;-82
2023/05/08 00:49:57;;;;;;;7.68;5.82;;;15.60;82.20;;;;;;4931912;29;20058;-82
2023/05/08 00:52:23;;;;;;;6.90;5.32;;;15.50;82.10;;;;;;4931383;29;20034;-83
2023/05/08 00:54:49;;;;;;;6.50;5.13;;;15.50;82.10;;;;;;4930621;29;20083;-82
2023/05/08 00:57:15;;;;;;;7.35;5.85;;;15.60;82.10;;;;;;4930662;29;20028;-83
2023/05/08 00:59:42;;;;;;;6.97;5.43;;;15.50;82.00;;;;;;4929535;29;20031;-83
2023/05/08 01:02:08;;;;;;;6.65;4.90;;;15.50;82.50;;;;;;4929549;29;20032;-83
2023/05/08 01:04:35;;;;;;;6.80;5.28;;;15.50;82.10;;;;;;4928645;29;20091;-83
2023/05/08 01:07:01;;;;;;;6.80;5.40;;;15.50;82.00;;;;;;4928762;29;20040;-83
2023/05/08 01:09:27;;;;;;;8.23;5.68;;;15.50;82.00;;;;;;4928549;29;20059;-84
2023/05/08 01:12:02;;;;;;;8.48;5.90;;;15.50;82.10;;;;;;4927847;29;20071;-83
2023/05/08 01:14:56;;;;;;;6.95;5.20;;;15.50;82.00;;;;;;4929039;29;20031;-84
2023/05/08 01:17:42;;;;;;;7.72;5.53;;;15.50;82.00;;;;;;4935611;29;20066;-83
2023/05/08 01:20:28;;;;;;;6.93;5.55;;;15.50;82.00;;;;;;4935380;29;20027;-84
2023/05/08 01:23:13;;;;;;;7.45;5.68;;;15.50;82.00;;;;;;4934684;29;20011;-85
2023/05/08 01:25:51;;;;;;;6.30;4.70;;;15.60;82.00;;;;;;4934242;29;20040;-83
2023/05/08 01:28:55;;;;;;;6.93;5.35;;;15.50;82.00;;;;;;4933235;29;20493;-83
2023/05/08 01:31:25;;;;;;;7.28;5.47;;;15.60;82.00;;;;;;4933018;29;20401;-83
2023/05/08 01:33:58;;;;;;;7.47;5.53;;;15.50;82.00;;;;;;4932859;29;20020;-84
2023/05/08 01:36:35;;;;;;;7.10;5.63;;;15.50;82.00;;;;;;4933133;29;20028;-83
2023/05/08 01:39:01;;;;;;;7.03;5.22;;;15.50;82.00;;;;;;4931550;29;20047;-84
2023/05/08 01:41:29;;;;;;;6.93;5.22;;;15.50;82.00;;;;;;4931296;29;20501;-85
2023/05/08 01:44:16;;;;;;;7.03;5.35;;;15.50;82.00;;;;;;4919909;29;20032;-82
2023/05/08 01:46:45;;;;;;;6.93;5.07;;;15.50;81.90;;;;;;4927471;29;20020;-83
2023/05/08 01:49:39;;;;;;;7.10;5.35;;;15.50;81.90;;;;;;4929671;29;20040;-83
2023/05/08 01:52:30;;;;;;;7.28;5.35;;;15.60;82.00;;;;;;4927716;29;20043;-83
2023/05/08 01:55:04;;;;;;;6.72;5.05;;;15.50;81.90;;;;;;4923106;29;20034;-83
2023/05/08 01:57:33;;;;;;;7.03;5.18;;;15.50;81.90;;;;;;4928429;29;20111;-84
2023/05/08 02:00:01;;;;;;;7.30;5.60;;;15.40;81.90;;;;;;4927235;29;20023;-82
2023/05/08 02:02:28;;;;;;;6.80;5.18;;;15.50;81.90;;;;;;4925719;29;20032;-83
2023/05/08 02:04:55;;;;;;;7.18;5.20;;;15.50;81.90;;;;;;4926589;29;20051;-83
2023/05/08 02:07:25;;;;;;;7.30;5.20;;;15.50;81.90;;;;;;4926059;29;20030;-83
2023/05/08 02:09:52;;;;;;;7.03;5.25;;;15.50;81.90;;;;;;4925334;29;20436;-82
2023/05/08 02:12:18;;;;;;;7.18;5.18;;;15.50;81.90;;;;;;4935470;29;20112;-82
2023/05/08 02:14:46;;;;;;;6.25;4.85;;;15.50;81.90;;;;;;4919289;29;20028;-82
2023/05/08 02:17:15;;;;;;;6.85;4.72;;;15.50;81.90;;;;;;4919813;29;20042;-81
2023/05/08 02:19:42;;;;;;;7.00;5.18;;;15.50;81.90;;;;;;4919437;29;20445;-81
2023/05/08 02:22:08;;;;;;;6.82;5.10;;;15.50;81.90;;;;;;4918993;29;20032;-82
2023/05/08 02:24:35;;;;;;;6.35;4.70;;;15.50;81.90;;;;;;4919979;29;20066;-82
2023/05/08 02:27:01;;;;;;;6.57;4.80;;;15.50;81.90;;;;;;4920462;29;20410;-82
2023/05/08 02:29:28;;;;;;;6.57;4.90;;;15.50;81.80;;;;;;4918711;29;20020;-82
2023/05/08 02:31:55;;;;;;;7.65;5.38;;;15.50;81.90;;;;;;4919171;29;20030;-82
2023/05/08 02:34:22;;;;;;;7.05;5.22;;;15.50;81.80;;;;;;4919076;29;20030;-82
2023/05/08 02:36:50;;;;;;;6.88;5.00;;;15.50;81.80;;;;;;4936403;29;20024;-84
2023/05/08 02:39:18;;;;;;;6.45;4.78;;;15.50;81.80;;;;;;4939797;29;20038;-82
2023/05/08 02:41:44;;;;;;;6.93;5.25;;;15.50;81.80;;;;;;4923161;29;20040;-83
2023/05/08 02:44:10;;;;;;;8.18;4.82;;;15.50;81.80;;;;;;4925268;29;20024;-82
2023/05/08 02:46:47;;;;;;;6.68;4.88;;;15.50;81.80;;;;;;4928309;29;20032;-82
2023/05/08 02:49:27;;;;;;;7.25;5.15;;;15.50;81.80;;;;;;4944081;29;20038;-83
2023/05/08 02:52:13;;;;;;;7.70;4.60;;;15.50;81.80;;;;;;4943754;29;20447;-82
2023/05/08 02:54:50;;;;;;;7.13;5.10;;;15.50;81.80;;;;;;4943640;29;20032;-82
2023/05/08 02:57:38;;;;;;;7.07;4.40;;;15.50;81.80;;;;;;4940870;29;20118;-82
2023/05/08 03:00:42;;;;;;;6.90;4.80;;;15.50;81.80;;;;;;4940878;29;20400;-81
2023/05/08 03:03:21;;;;;;;7.13;5.03;;;15.50;81.80;;;;;;4890279;29;20614;-82
2023/05/08 03:05:52;;;;;;;6.85;5.25;;;15.40;81.70;;;;;;4940810;29;20570;-82
2023/05/08 03:08:23;;;;;;;6.80;4.90;;;15.50;81.80;;;;;;4941054;29;20024;-82
2023/05/08 03:10:52;;;;;;;6.45;4.75;;;15.50;81.80;;;;;;4942651;28;20038;-82
2023/05/08 03:13:19;;;;;;;6.85;5.10;;;15.50;81.80;;;;;;4942775;29;20023;-83
2023/05/08 03:15:52;;;;;;;6.45;4.85;;;15.50;81.80;;;;;;4941548;29;20027;-82
2023/05/08 03:18:20;;;;;;;6.60;4.72;;;15.50;81.80;;;;;;4940126;29;20034;-82
2023/05/08 03:20:52;;;;;;;6.22;4.68;;;15.50;81.80;;;;;;4942302;28;20030;-82
2023/05/08 03:23:20;;;;;;;6.72;4.93;;;15.50;81.80;;;;;;4941836;29;20027;-82
2023/05/08 03:25:46;;;;;;;6.40;4.80;;;15.50;81.80;;;;;;4943933;29;20027;-81
2023/05/08 03:28:13;;;;;;;6.78;5.10;;;15.50;81.80;;;;;;4938625;29;20066;-81
2023/05/08 03:30:40;;;;;;;6.70;4.88;;;15.50;81.70;;;;;;4937906;28;20023;-80
2023/05/08 03:33:07;;;;;;;6.57;4.60;;;15.50;81.80;;;;;;4933303;29;20028;-79
2023/05/08 03:35:37;;;;;;;6.90;4.97;;;15.50;81.70;;;;;;4941349;29;20059;-80
2023/05/08 03:38:12;;;;;;;6.35;4.82;;;15.60;81.80;;;;;;4940471;29;20074;-81
2023/05/08 03:53:32;;;;;;;7.55;4.97;;;15.50;81.70;;;;;;4935544;29;20052;-82
2023/05/08 03:55:59;;;;;;;6.60;5.03;;;15.50;81.70;;;;;;4941608;29;20027;-80
2023/05/08 03:58:37;;;;;;;7.53;5.00;;;15.50;81.70;;;;;;4948550;29;20091;-81
2023/05/08 04:01:24;;;;;;;6.88;5.15;;;15.50;81.70;;;;;;4953179;28;20033;-85
2023/05/08 04:04:13;;;;;;;6.80;4.65;;;15.50;81.60;;;;;;4966296;28;20062;-79
2023/05/08 04:07:04;;;;;;;6.20;4.57;;;15.50;81.70;;;;;;4962754;28;20030;-81
2023/05/08 04:09:38;;;;;;;8.07;5.35;;;15.50;81.70;;;;;;4965936;28;20034;-85
2023/05/08 04:12:13;;;;;;;6.32;4.57;;;15.40;81.60;;;;;;4966403;28;20038;-80
2023/05/08 04:14:54;;;;;;;7.07;5.00;;;15.50;81.70;;;;;;4966343;28;20084;-80
2023/05/08 04:17:46;;;;;;;6.32;4.88;;;15.50;81.60;;;;;;4964423;28;20411;-82
2023/05/08 04:20:19;;;;;;;6.40;4.63;;;15.60;81.70;;;;;;4965130;28;20090;-81
2023/05/08 04:22:47;;;;;;;7.13;5.22;;;15.30;81.50;;;;;;4963668;28;20027;-82
2023/05/08 04:25:18;;;;;;;6.40;4.60;;;15.50;81.70;;;;;;4960864;28;20037;-81
2023/05/08 04:27:45;;;;;;;6.78;4.85;;;15.40;81.50;;;;;;4959274;28;20031;-80
2023/05/08 04:30:11;;;;;;;6.82;5.00;;;15.40;81.50;;;;;;4962734;28;20027;-80
2023/05/08 04:32:38;;;;;;;6.43;4.80;;;15.50;81.60;;;;;;4962928;28;20030;-81
2023/05/08 04:35:05;;;;;;;6.40;4.70;;;15.50;81.60;;;;;;4962913;28;20094;-81
2023/05/08 04:37:31;;;;;;;7.32;4.78;;;15.50;81.50;;;;;;4972965;28;20046;-80
2023/05/08 04:39:57;;;;;;;7.20;5.25;;;15.50;81.50;;;;;;4960020;28;20019;-81
2023/05/08 04:46:36;;;;;;;7.43;5.15;;;15.20;81.40;;;;;;4836770;29;20545;-81
2023/05/08 04:49:35;;;;;;;6.38;4.80;;;15.40;81.40;;;;;;4789924;30;20042;-84
2023/05/08 04:52:41;;;;;;;6.70;5.03;;;15.40;81.40;;;;;;4780588;30;20043;-85
2023/05/08 04:55:51;;;;;;;6.93;5.03;;;15.40;81.40;;;;;;4758432;30;20043;-83
2023/05/08 05:05:15;;;;;;;6.53;4.80;;;15.50;81.30;;;;;;4754797;30;20159;-81
2023/05/08 05:07:55;;;;;;;6.78;4.82;;;15.40;81.30;;;;;;4757168;30;20117;-79
2023/05/08 05:13:02;;;;;;;6.88;4.72;;;15.50;81.20;;;;;;4918662;23;20063;-81
2023/05/08 05:16:03;;;;;;;;;;;;;;;;;;;;;
2023/05/08 05:21:55;;;;;;;8.05;4.90;;;15.90;81.40;;;;;;4877038;29;20071;-80
2023/05/08 05:24:21;;;;;;;6.45;4.82;;;15.40;81.00;;;;;;4864993;29;20053;-82
2023/05/08 05:26:46;;;;;;;7.18;4.93;;;15.50;81.00;;;;;;4873067;29;20040;-82
2023/05/08 05:29:12;;;;;;;7.43;5.55;;;15.50;80.90;;;;;;4927165;29;20020;-82
2023/05/08 05:31:37;;;;;;;7.38;5.00;;;15.50;80.80;;;;;;4926376;29;20111;-83
2023/05/08 05:34:03;;;;;;;9.60;5.00;;;15.50;80.70;;;;;;4919150;29;20028;-83
2023/05/08 05:36:29;;;;;;;7.40;5.05;;;15.50;80.70;;;;;;4908553;29;20080;-82
2023/05/08 05:38:55;;;;;;;6.90;4.78;;;15.50;80.70;;;;;;4908312;29;20618;-82
2023/05/08 05:41:21;;;;;;;8.18;5.43;;;15.60;80.80;;;;;;4903599;29;20064;-81
2023/05/08 05:43:46;;;;;;;8.70;5.38;;;15.60;80.70;;;;;;4901003;29;20123;-82
2023/05/08 05:46:12;;;;;;;7.38;5.20;;;15.60;80.70;;;;;;4899593;29;20071;-82
2023/05/08 05:48:37;;;;;;;7.28;5.50;;;15.60;80.70;;;;;;4900921;29;20025;-82
2023/05/08 05:51:03;;;;;;;9.13;5.22;;;15.60;80.60;;;;;;4902617;29;20035;-82
2023/05/08 05:53:28;;;;;;;8.18;5.07;;;15.60;80.60;;;;;;4907463;29;20024;-82
2023/05/08 05:55:54;;;;;;;8.80;4.72;;;15.60;80.60;;;;;;4905015;29;20088;-83
2023/05/08 05:58:19;;;;;;;8.75;5.55;;;15.60;80.60;;;;;;4905091;29;20040;-82
2023/05/08 06:00:46;;;;;;;7.93;4.72;;;15.60;80.60;;;;;;4905471;29;20091;-82
2023/05/08 06:03:12;;;;;;;6.70;4.93;;;15.60;80.60;;;;;;4917173;29;20028;-82
2023/05/08 06:05:39;;;;;;;8.25;5.40;;;15.60;80.50;;;;;;4900644;29;20043;-82
2023/05/08 06:08:05;;;;;;;7.38;5.07;;;15.60;80.50;;;;;;4900119;29;20416;-82
2023/05/08 06:10:30;;;;;;;7.20;4.97;;;15.60;80.50;;;;;;4904467;29;20024;-81
2023/05/08 06:12:56;;;;;;;6.60;4.82;;;15.60;80.40;;;;;;4904448;29;20028;-82
2023/05/08 06:15:22;;;;;;;8.15;5.60;;;15.70;80.40;;;;;;4902592;29;20560;-81
2023/05/08 06:17:47;;;;;;;7.97;5.05;;;15.60;80.30;;;;;;4900511;29;20024;-81
2023/05/08 06:20:13;;;;;;;6.78;4.97;;;15.60;80.40;;;;;;4903720;29;20035;-82
2023/05/08 06:22:40;;;;;;;8.02;5.40;;;15.70;80.40;;;;;;4903317;29;20036;-82
2023/05/08 06:25:06;;;;;;;7.40;5.15;;;15.70;80.40;;;;;;4903661;29;20028;-82
2023/05/08 06:27:35;;;;;;;8.15;5.25;;;15.70;80.40;;;;;;4902999;29;20027;-82
2023/05/08 06:30:01;;;;;;;6.68;4.53;;;15.70;80.30;;;;;;4904149;29;20167;-82
2023/05/08 06:32:26;;;;;;;6.75;5.00;;;15.70;80.20;;;;;;4905531;29;20056;-81
2023/05/08 06:34:52;;;;;;;6.50;4.63;;;15.70;80.20;;;;;;4902644;29;20028;-81
2023/05/08 06:37:17;;;;;;;7.50;5.28;;;15.70;80.20;;;;;;4905578;29;20024;-82
2023/05/08 06:39:43;;;;;;;6.68;4.78;;;15.70;80.20;;;;;;4905202;29;20070;-82
2023/05/08 06:42:08;;;;;;;7.63;5.10;;;15.80;80.20;;;;;;4902645;29;20030;-81
2023/05/08 06:44:34;;;;;;;6.40;4.72;;;15.80;80.20;;;;;;4902764;29;20032;-82
2023/05/08 06:47:00;;;;;;;6.95;4.88;;;15.80;80.10;;;;;;4904090;29;20031;-82
2023/05/08 06:49:25;;;;;;;6.65;5.00;;;15.80;80.00;;;;;;4916231;29;20032;-82
2023/05/08 06:51:51;;;;;;;6.63;4.97;;;15.80;80.00;;;;;;4923328;29;20031;-82
2023/05/08 06:54:17;;;;;;;7.13;5.13;;;15.80;80.00;;;;;;4921297;29;20027;-82
2023/05/08 06:56:43;;;;;;;6.47;4.90;;;15.80;80.10;;;;;;4922457;29;20028;-82
2023/05/08 06:59:08;;;;;;;6.57;4.75;;;15.80;80.20;;;;;;4922695;29;20038;-82
2023/05/08 07:01:34;;;;;;;7.03;5.20;;;15.80;80.10;;;;;;4921799;29;20023;-82
2023/05/08 07:04:00;;;;;;;6.72;4.95;;;15.80;80.20;;;;;;4922703;29;20032;-82
2023/05/08 07:06:26;;;;;;;7.15;4.85;;;15.80;80.10;;;;;;4922665;29;20028;-81
2023/05/08 07:08:52;;;;;;;7.10;5.07;;;15.80;80.10;;;;;;4921347;29;20024;-82
2023/05/08 07:11:17;;;;;;;6.97;5.03;;;15.80;80.10;;;;;;4921437;29;20079;-82
2023/05/08 07:13:44;;;;;;;6.70;4.80;;;15.80;80.10;;;;;;4920931;29;20557;-82
2023/05/08 07:16:10;;;;;;;6.82;4.75;;;15.80;80.10;;;;;;4920949;29;20038;-82
2023/05/08 07:18:36;;;;;;;6.45;4.75;;;15.90;80.20;;;;;;4921307;29;20031;-81
2023/05/08 07:21:02;;;;;;;6.57;4.75;;;15.80;80.00;;;;;;4921510;29;20106;-82
2023/05/08 07:23:27;;;;;;;6.25;4.45;;;15.90;80.10;;;;;;4920753;29;20119;-81
2023/05/08 07:25:53;;;;;;;6.60;4.85;;;15.80;80.00;;;;;;4920924;29;20461;-82
2023/05/08 07:28:19;;;;;;;6.30;4.50;;;15.90;80.10;;;;;;4920723;29;20028;-82
2023/05/08 07:30:44;;;;;;;6.50;4.65;;;15.80;80.00;;;;;;4920488;29;20477;-81
2023/05/08 07:33:10;;;;;;;6.35;4.57;;;15.80;80.00;;;;;;4953085;29;20031;-83
2023/05/08 07:35:41;;;;;;;6.68;4.68;;;15.90;80.00;;;;;;4937483;29;20027;-83
2023/05/08 07:38:07;;;;;;;6.28;4.60;;;15.90;80.00;;;;;;4936643;29;20134;-84
2023/05/08 07:40:33;;;;;;;6.47;4.72;;;15.90;79.90;;;;;;4936675;29;20070;-83
2023/05/08 07:42:59;;;;;;;6.03;4.47;;;15.90;79.90;;;;;;4935944;29;20024;-85
2023/05/08 07:45:24;;;;;;;6.47;4.63;;;15.90;79.80;;;;;;4935801;29;20437;-82
2023/05/08 07:47:51;;;;;;;6.38;4.68;;;16.00;79.80;;;;;;4935686;29;20047;-82
2023/05/08 07:50:17;;;;;;;6.57;4.80;;;16.00;79.70;;;;;;4934978;29;20038;-82
2023/05/08 07:52:42;;;;;;;6.68;4.85;;;16.10;79.60;;;;;;4934614;29;20488;-83
2023/05/08 07:55:08;;;;;;;7.63;5.00;;;16.10;79.40;;;;;;4951413;29;20035;-83
2023/05/08 07:57:37;;;;;;;5.93;4.35;;;16.10;79.30;;;;;;4933165;29;20031;-82
2023/05/08 08:00:05;;;;;;;6.25;4.47;;;16.20;79.30;;;;;;4949961;29;20028;-82
2023/05/08 08:02:30;;;;;;;6.35;5.00;;;16.20;79.20;;;;;;4932326;29;20034;-83
2023/05/08 08:04:56;;;;;;;6.65;5.03;;;16.20;79.20;;;;;;4948895;29;20031;-83
2023/05/08 08:07:21;;;;;;;6.35;4.45;;;16.30;79.10;;;;;;4948542;29;20008;-82
2023/05/08 08:09:47;;;;;;;6.15;4.38;;;16.30;79.50;;;;;;4931145;29;20031;-82
2023/05/08 08:12:13;;;;;;;6.57;4.70;;;16.30;79.00;;;;;;4930684;29;20505;-82
2023/05/08 08:14:38;;;;;;;6.60;4.72;;;16.30;79.00;;;;;;4929665;29;20057;-83
2023/05/08 08:17:04;;;;;;;6.10;4.25;;;16.30;79.00;;;;;;4929358;29;20420;-82
2023/05/08 08:19:29;;;;;;;5.97;4.40;;;16.30;79.00;;;;;;4930218;29;20551;-83
2023/05/08 08:21:55;;;;;;;6.10;4.50;;;16.30;79.10;;;;;;4929083;29;20054;-81
2023/05/08 08:24:21;;;;;;;6.47;4.75;;;16.20;79.00;;;;;;4927859;29;20036;-82
2023/05/08 08:26:47;;;;;;;6.20;4.40;;;16.30;79.00;;;;;;4935417;29;20028;-84
2023/05/08 08:29:13;;;;;;;6.15;4.47;;;16.30;79.10;;;;;;4936109;29;20026;-84
2023/05/08 08:31:38;;;;;;;6.40;4.65;;;16.30;79.10;;;;;;4935215;29;20023;-84
2023/05/08 08:34:04;;;;;;;6.63;4.70;;;16.30;79.00;;;;;;4934467;29;20028;-83
2023/05/08 08:36:29;;;;;;;6.30;4.53;;;16.30;78.80;;;;;;4934426;29;20040;-80
2023/05/08 08:38:54;;;;;;;6.68;4.47;;;16.40;79.00;;;;;;4951351;29;20019;-83
2023/05/08 08:41:21;;;;;;;6.28;4.45;;;16.40;78.90;;;;;;4931812;29;20599;-82
2023/05/08 08:43:46;;;;;;;6.07;4.28;;;16.40;78.90;;;;;;4932666;29;20035;-83
2023/05/08 08:46:17;;;;;;;6.18;4.70;;;16.40;78.90;;;;;;4932359;29;20020;-83
2023/05/08 08:48:45;;;;;;;7.10;4.53;;;16.40;78.80;;;;;;4932541;29;20027;-82
2023/05/08 08:51:35;;;;;;;5.57;4.05;;;16.50;78.80;;;;;;4931877;29;20067;-83
2023/05/08 08:54:10;;;;;;;6.53;4.70;;;16.50;78.60;;;;;;4931365;29;20027;-83
2023/05/08 08:56:38;;;;;;;6.45;4.80;;;16.50;78.60;;;;;;4931238;29;20073;-83
2023/05/08 08:59:04;;;;;;;6.05;4.50;;;16.50;78.60;;;;;;4929964;29;20508;-82
2023/05/08 09:01:34;;;;;;;6.28;4.57;;;16.60;78.50;;;;;;4925824;29;20126;-81
2023/05/08 09:04:00;;;;;;;6.20;4.55;;;16.60;78.40;;;;;;4920499;29;20065;-82
2023/05/08 09:06:26;;;;;;;7.32;4.50;;;16.60;78.30;;;;;;4919270;29;20112;-81
2023/05/08 09:08:55;;;;;;;6.75;4.75;;;16.60;78.40;;;;;;4920549;29;20051;-82
2023/05/08 09:11:21;;;;;;;6.15;4.32;;;16.70;78.30;;;;;;4923172;29;20051;-82
2023/05/08 09:13:47;;;;;;;6.00;4.40;;;16.60;78.30;;;;;;4928660;29;20063;-83
2023/05/08 09:16:12;;;;;;;6.75;4.70;;;16.70;78.30;;;;;;4928425;29;20482;-82
2023/05/08 09:18:37;;;;;;;5.78;4.07;;;16.70;78.30;;;;;;4925155;29;20115;-82
2023/05/08 09:21:05;;;;;;;5.82;4.20;;;16.70;78.20;;;;;;4918835;29;20024;-83
2023/05/08 09:23:30;;;;;;;5.90;4.30;;;16.80;78.20;;;;;;4919553;29;20591;-81
2023/05/08 09:25:56;;;;;;;6.30;4.53;;;16.80;78.10;;;;;;4923576;29;20070;-82
2023/05/08 09:28:23;;;;;;;6.60;4.20;;;16.80;78.10;;;;;;4926469;29;20024;-82
2023/05/08 09:30:50;;;;;;;6.18;4.30;;;16.70;78.10;;;;;;4925406;29;20113;-82
2023/05/08 09:33:16;;;;;;;5.78;4.18;;;16.80;78.20;;;;;;4924959;29;20015;-80
2023/05/08 09:35:41;;;;;;;5.90;4.15;;;16.80;78.20;;;;;;4924686;29;20027;-82
2023/05/08 09:38:07;;;;;;;6.32;4.40;;;16.70;78.20;;;;;;4924854;29;20588;-82
2023/05/08 09:40:32;;;;;;;5.93;4.32;;;16.80;78.30;;;;;;4942586;29;20032;-81
2023/05/08 09:43:12;;;;;;;6.47;4.30;;;16.70;78.20;;;;;;4924318;29;20059;-82
2023/05/08 09:45:38;;;;;;;6.32;4.38;;;16.70;78.30;;;;;;4923740;29;20465;-81
2023/05/08 09:48:05;;;;;;;6.07;4.18;;;16.60;78.30;;;;;;4923712;29;20056;-83
2023/05/08 09:50:31;;;;;;;5.35;3.78;;;16.80;78.40;;;;;;4920040;29;20031;-82
2023/05/08 09:52:57;;;;;;;6.07;4.43;;;16.80;78.40;;;;;;4918999;29;20024;-82
2023/05/08 09:55:23;;;;;;;6.20;4.65;;;16.80;78.40;;;;;;4935372;29;20030;-82
2023/05/08 09:57:57;;;;;;;5.90;4.50;;;16.80;78.40;;;;;;4919177;29;20027;-82
2023/05/08 10:00:27;;;;;;;6.05;4.30;;;16.80;78.20;;;;;;4920105;29;20503;-82
2023/05/08 10:03:01;;;;;;;5.97;4.20;;;16.90;78.30;;;;;;4921384;29;20028;-82
2023/05/08 10:05:32;;;;;;;6.00;4.35;;;16.90;78.10;;;;;;4921918;29;20496;-82
2023/05/08 10:08:17;;;;;;;5.82;4.00;;;16.90;78.10;;;;;;4920245;29;20027;-82
2023/05/08 10:10:43;;;;;;;5.93;4.35;;;16.90;78.00;;;;;;4919341;29;20027;-82
2023/05/08 10:13:08;;;;;;;5.60;4.07;;;16.90;78.00;;;;;;4920918;29;20023;-82
2023/05/08 10:15:37;;;;;;;5.70;3.80;;;16.90;78.00;;;;;;4921151;29;20028;-82
2023/05/08 10:18:05;;;;;;;6.10;4.07;;;16.90;78.10;;;;;;4920988;29;20035;-82
2023/05/08 10:20:32;;;;;;;5.78;3.67;;;16.90;78.10;;;;;;4920724;29;20119;-82
2023/05/08 10:22:58;;;;;;;6.05;3.88;;;16.90;78.20;;;;;;4918247;29;20496;-82
2023/05/08 10:25:24;;;;;;;5.95;4.35;;;16.90;78.30;;;;;;4920504;29;20036;-82
2023/05/08 10:28:15;;;;;;;5.90;4.07;;;16.90;78.30;;;;;;4919598;29;20051;-82
2023/05/08 10:30:47;;;;;;;5.78;3.90;;;16.90;78.40;;;;;;4918509;29;20388;-82
2023/05/08 10:33:15;;;;;;;5.80;3.90;;;16.90;78.50;;;;;;4917968;29;20024;-81
2023/05/08 10:35:41;;;;;;;6.50;4.30;;;16.90;78.50;;;;;;4918338;29;20036;-81
2023/05/08 10:38:08;;;;;;;6.43;4.20;;;16.80;78.40;;;;;;4918382;29;20070;-80
2023/05/08 10:40:34;;;;;;;5.65;4.25;;;16.80;78.50;;;;;;4917901;29;20024;-81
2023/05/08 10:43:01;;;;;;;6.18;4.10;;;16.80;78.50;;;;;;4918929;29;20572;-83
2023/05/08 10:45:28;;;;;;;5.85;4.30;;;16.90;78.50;;;;;;4918089;29;20087;-82
2023/05/08 10:48:07;;;;;;;5.97;3.90;;;16.90;78.50;;;;;;4918389;29;20024;-81
2023/05/08 10:50:37;;;;;;;5.93;4.18;;;16.90;78.50;;;;;;4919082;29;20034;-81
2023/05/08 10:53:10;;;;;;;5.90;3.88;;;16.90;78.40;;;;;;4935855;29;20389;-82
2023/05/08 10:55:37;;;;;;;6.55;4.50;;;16.90;78.30;;;;;;4917802;29;20036;-82
2023/05/08 10:58:28;;;;;;;5.55;3.75;;;16.90;78.30;;;;;;4917709;29;20027;-81
2023/05/08 11:01:02;;;;;;;7.32;4.10;;;16.90;78.40;;;;;;4917761;29;20512;-82
2023/05/08 11:03:29;;;;;;;5.85;4.03;;;16.90;78.30;;;;;;4918596;29;20034;-82
2023/05/08 11:05:57;;;;;;;5.63;3.92;;;17.00;78.40;;;;;;4921947;29;20026;-81
2023/05/08 11:08:26;;;;;;;5.78;3.97;;;16.90;78.50;;;;;;4938130;29;20056;-81
2023/05/08 11:11:03;;;;;;;5.38;3.80;;;16.90;78.40;;;;;;4921202;29;20024;-82
2023/05/08 11:13:33;;;;;;;5.75;3.92;;;16.90;78.40;;;;;;4926498;29;20036;-84
2023/05/08 11:15:59;;;;;;;5.50;3.70;;;16.90;78.40;;;;;;4953893;29;20024;-84
2023/05/08 11:18:25;;;;;;;5.85;3.97;;;16.90;78.40;;;;;;4936367;29;20508;-84
2023/05/08 11:21:05;;;;;;;5.93;4.00;;;16.90;78.50;;;;;;4952961;29;20019;-83
2023/05/08 11:23:32;;;;;;;5.60;4.00;;;16.90;78.60;;;;;;4935343;29;20028;-83
2023/05/08 11:26:03;;;;;;;5.47;3.72;;;16.90;78.40;;;;;;4935332;29;20020;-83
2023/05/08 11:28:36;;;;;;;5.50;3.80;;;16.90;78.40;;;;;;4935510;29;20671;-83
2023/05/08 11:31:03;;;;;;;6.00;3.83;;;16.90;78.40;;;;;;4951533;29;20303;-83
2023/05/08 11:33:36;;;;;;;5.65;3.88;;;16.90;78.30;;;;;;4929877;29;20024;-81
2023/05/08 11:36:21;;;;;;;5.25;3.38;;;17.00;78.30;;;;;;4922091;29;20507;-82
2023/05/08 11:39:14;;;;;;;5.57;3.85;;;16.90;78.20;;;;;;4931929;29;20520;-82
2023/05/08 11:41:39;;;;;;;5.70;3.80;;;16.90;78.30;;;;;;4932229;29;20024;-83
2023/05/08 11:44:15;;;;;;;5.13;3.35;;;17.00;78.40;;;;;;4931637;29;20117;-83
2023/05/08 11:46:52;;;;;;;5.50;3.70;;;17.00;78.50;;;;;;4931385;29;20609;-82
2023/05/08 11:49:20;;;;;;;5.78;3.80;;;17.00;78.30;;;;;;4931163;29;20052;-82
2023/05/08 11:51:54;;;;;;;5.35;3.55;;;16.90;78.30;;;;;;4948602;29;20019;-82
2023/05/08 11:54:21;;;;;;;4.80;3.42;;;16.90;78.40;;;;;;4928041;29;20397;-81
2023/05/08 11:56:51;;;;;;;5.18;3.63;;;16.90;78.40;;;;;;4921382;29;20036;-82
2023/05/08 11:59:18;;;;;;;5.50;3.80;;;16.90;78.50;;;;;;4929518;29;20396;-82
2023/05/08 12:01:43;;;;;;;5.10;3.70;;;16.90;78.40;;;;;;4929389;29;20024;-82
2023/05/08 12:04:11;;;;;;;5.50;3.53;;;16.90;78.40;;;;;;4928274;29;20047;-83
2023/05/08 12:06:39;;;;;;;5.70;3.90;;;16.90;78.40;;;;;;4946873;29;20028;-84
2023/05/08 12:09:16;;;;;;;5.63;4.00;;;16.90;78.40;;;;;;4934900;29;20020;-83
2023/05/08 12:11:44;;;;;;;5.35;3.50;;;17.00;78.50;;;;;;4936183;29;20500;-84
2023/05/08 12:14:11;;;;;;;5.40;3.53;;;16.90;78.40;;;;;;4935557;29;20492;-83
2023/05/08 12:16:38;;;;;;;5.50;3.60;;;16.90;78.50;;;;;;4935344;29;20036;-83
2023/05/08 12:19:08;;;;;;;5.40;3.60;;;16.90;78.50;;;;;;4934991;29;20031;-83
2023/05/08 12:21:34;;;;;;;5.45;3.67;;;16.80;78.60;;;;;;4934598;29;20496;-83
2023/05/08 12:23:59;;;;;;;4.70;3.25;;;16.90;78.70;;;;;;4933762;29;20039;-83
2023/05/08 12:26:25;;;;;;;5.55;3.60;;;16.90;78.70;;;;;;4933441;29;20441;-83
2023/05/08 12:28:58;;;;;;;5.70;3.72;;;16.90;78.80;;;;;;4932921;29;20012;-83
2023/05/08 12:31:23;;;;;;;5.40;3.78;;;16.80;78.80;;;;;;4932717;29;20019;-83
2023/05/08 12:33:49;;;;;;;5.15;3.40;;;16.80;78.80;;;;;;4931990;29;20028;-82
2023/05/08 12:36:15;;;;;;;5.47;3.63;;;16.80;78.90;;;;;;4931388;29;20038;-82
2023/05/08 12:38:40;;;;;;;6.10;3.53;;;16.80;78.90;;;;;;4929639;29;20032;-82
2023/05/08 12:41:07;;;;;;;5.38;3.83;;;16.80;78.90;;;;;;4923574;29;20032;-82
2023/05/08 12:43:36;;;;;;;5.57;3.75;;;16.80;78.90;;;;;;4932707;29;20030;-80
2023/05/08 12:46:03;;;;;;;6.07;3.88;;;16.80;79.00;;;;;;4924423;29;20513;-81
2023/05/08 12:48:29;;;;;;;5.57;3.63;;;16.80;79.00;;;;;;4924100;29;20048;-81
2023/05/08 12:51:01;;;;;;;5.38;3.53;;;16.80;79.00;;;;;;4923911;29;20028;-80
2023/05/08 12:53:29;;;;;;;5.35;3.60;;;16.80;79.00;;;;;;4922698;29;20031;-80
2023/05/08 12:55:56;;;;;;;5.22;3.47;;;16.80;79.00;;;;;;4922741;29;20031;-80
2023/05/08 12:58:40;;;;;;;5.30;3.95;;;16.80;78.90;;;;;;4939467;29;20036;-81
2023/05/08 13:01:11;;;;;;;5.22;3.53;;;16.80;79.00;;;;;;4920640;29;20052;-80
2023/05/08 13:03:38;;;;;;;5.55;3.78;;;16.80;79.00;;;;;;4920785;29;20035;-81
2023/05/08 13:06:05;;;;;;;5.22;3.45;;;16.80;79.00;;;;;;4920066;29;20076;-81
2023/05/08 13:08:32;;;;;;;5.72;3.80;;;16.80;79.00;;;;;;4918352;29;20122;-80
2023/05/08 13:10:58;;;;;;;5.35;3.70;;;16.80;79.00;;;;;;4921168;29;20038;-82
2023/05/08 13:13:29;;;;;;;5.50;3.65;;;16.80;79.00;;;;;;4937997;29;20380;-79
2023/05/08 13:15:55;;;;;;;4.82;3.22;;;16.80;79.10;;;;;;4918933;29;20023;-81
2023/05/08 13:18:25;;;;;;;5.65;3.83;;;16.80;79.10;;;;;;4919432;29;20035;-82
2023/05/08 13:20:50;;;;;;;5.13;3.40;;;16.80;79.20;;;;;;4919764;29;20024;-82
2023/05/08 13:23:16;;;;;;;5.55;3.55;;;16.70;79.20;;;;;;4918885;29;20032;-81
2023/05/08 13:25:41;;;;;;;5.00;3.22;;;16.70;79.20;;;;;;4923255;29;20031;-82
2023/05/08 13:28:08;;;;;;;5.13;3.35;;;16.70;79.30;;;;;;4923013;29;20019;-82
2023/05/08 13:30:35;;;;;;;5.50;3.55;;;16.70;79.30;;;;;;4940504;29;20019;-82